Time;durP1;ratioP1;P1;durP2;ratioP2;P2;SDS_P1;SDS_P2;PMS_P1;PMS_P2;Temp;Humidity;BMP_temperature;BMP_pressure;BME280_temperature;BME280_humidity;BME280_pressure;Samples;Min_cycle;Max_cycle;Signal;HPM_P1;HPM_P2
2023/10/02 00:01:47;;;;;;;14.90;12.02;;;;;;;21.44;100.00;101050.94;5017270;28;20514;-69
2023/10/02 00:04:18;;;;;;;13.90;11.38;;;;;;;21.25;100.00;100985.63;5016783;28;20037;-70
2023/10/02 00:06:47;;;;;;;13.43;11.68;;;;;;;21.42;100.00;101034.66;5017311;28;20104;-69
2023/10/02 00:09:16;;;;;;;14.75;11.27;;;;;;;21.22;100.00;101001.28;5017116;28;20036;-69
2023/10/02 00:11:41;;;;;;;14.70;11.57;;;;;;;21.47;100.00;101036.06;5016611;28;20476;-70
2023/10/02 00:14:19;;;;;;;13.77;11.02;;;;;;;21.01;100.00;100979.19;5017226;28;20030;-69
2023/10/02 00:16:59;;;;;;;16.05;11.52;;;;;;;21.52;100.00;101028.06;5017129;28;20559;-69
2023/10/02 00:19:27;;;;;;;12.73;11.43;;;;;;;21.40;100.00;101041.69;5016987;28;20065;-70
2023/10/02 00:21:57;;;;;;;12.68;11.02;;;;;;;21.02;100.00;100973.09;5017044;28;20046;-69
2023/10/02 00:24:26;;;;;;;13.82;10.80;;;;;;;21.01;100.00;100974.00;5017007;28;20036;-69
2023/10/02 00:26:57;;;;;;;16.33;10.65;;;;;;;21.33;100.00;101046.34;5015249;28;20021;-69
2023/10/02 00:29:23;;;;;;;16.25;10.35;;;;;;;20.96;100.00;100979.41;5017164;28;20116;-68
2023/10/02 00:31:50;;;;;;;14.82;10.88;;;;;;;21.29;100.00;101038.88;5016898;28;20479;-69
2023/10/02 00:34:16;;;;;;;13.27;10.30;;;;;;;20.94;100.00;100981.25;5015633;28;20479;-69
2023/10/02 00:36:42;;;;;;;12.45;9.80;;;;;;;20.96;100.00;100984.59;5016573;28;20488;-69
2023/10/02 00:39:30;;;;;;;13.52;10.35;;;;;;;21.37;100.00;101047.84;5013329;28;20087;-69
2023/10/02 00:47:38;;;;;;;15.40;10.00;;;;;;;21.33;100.00;101055.88;5013650;28;20033;-70
2023/10/02 00:50:10;;;;;;;12.35;9.68;;;;;;;20.63;100.00;100952.81;5012951;28;20105;-70
2023/10/02 00:52:42;;;;;;;11.32;10.13;;;;;;;21.17;100.00;101026.59;5012358;28;20057;-70
2023/10/02 00:55:11;;;;;;;14.40;10.10;;;;;;;21.03;100.00;101018.75;5013374;28;20104;-70
2023/10/02 00:57:38;;;;;;;11.20;9.07;;;;;;;21.02;100.00;101012.75;5013570;28;20084;-70
2023/10/02 01:00:17;;;;;;;12.27;9.38;;;;;;;21.22;100.00;101051.28;5013402;28;20087;-69
2023/10/02 01:02:50;;;;;;;11.30;9.55;;;;;;;20.60;100.00;100946.06;5013245;28;20382;-72
2023/10/02 01:05:30;;;;;;;10.85;9.23;;;;;;;21.20;100.00;101036.75;5013134;28;20096;-69
2023/10/02 01:07:57;;;;;;;11.25;9.48;;;;;;;21.34;100.00;101060.13;5013248;28;20088;-72
2023/10/02 01:10:29;;;;;;;11.13;8.52;;;;;;;21.12;100.00;101051.88;5012822;28;20038;-70
2023/10/02 01:13:01;;;;;;;;;;;;;;;21.43;100.00;101068.22;5013665;28;20061;-70
2023/10/02 01:15:27;;;;;;;;;;;;;;;21.14;100.00;101065.56;4995950;28;20000;-70
2023/10/02 01:17:54;;;;;;;11.82;8.82;;;;;;;21.21;100.00;101049.63;4995185;28;19918;-70
2023/10/02 01:20:35;;;;;;;12.68;9.23;;;;;;;21.41;100.00;101051.13;5011718;28;20057;-70
2023/10/02 01:23:16;;;;;;;16.30;9.68;;;;;;;21.22;100.00;101065.97;5012885;28;20124;-70
2023/10/02 01:25:42;;;;;;;12.82;8.90;;;;;;;20.78;100.00;100993.34;5013179;28;20121;-69
2023/10/02 01:28:10;;;;;;;10.52;8.45;;;;;;;21.13;100.00;101058.72;5012861;28;20030;-68
2023/10/02 01:30:37;;;;;;;10.27;8.35;;;;;;;20.88;100.00;101022.16;5012866;28;20566;-70
2023/10/02 01:33:12;;;;;;;9.40;7.93;;;;;;;21.18;100.00;101077.41;5012705;28;20030;-70
2023/10/02 01:35:48;;;;;;;12.88;8.75;;;;;;;20.83;100.00;101026.72;5012617;28;20034;-70
2023/10/02 01:38:37;;;;;;;12.75;8.70;;;;;;;21.28;100.00;101060.47;4995093;28;20033;-70
2023/10/02 01:41:05;;;;;;;12.23;8.57;;;;;;;21.08;100.00;101071.91;5012666;28;20030;-70
2023/10/02 01:43:36;;;;;;;8.68;7.60;;;;;;;21.09;100.00;101071.00;5012502;28;20037;-69
2023/10/02 01:46:02;;;;;;;12.90;8.20;;;;;;;21.02;100.00;101055.88;5012240;28;20420;-69
2023/10/02 01:48:37;;;;;;;13.57;7.88;;;;;;;20.93;100.00;101043.41;5012704;28;20068;-70
2023/10/02 01:51:31;;;;;;;10.52;8.20;;;;;;;20.97;100.00;101050.94;5017978;28;20053;-69
2023/10/02 01:54:15;;;;;;;9.85;7.40;;;;;;;20.87;100.00;101038.56;5031756;28;20026;-69
2023/10/02 01:56:45;;;;;;;9.75;7.25;;;;;;;20.90;100.00;101033.25;4994905;28;20044;-69
2023/10/02 01:59:14;;;;;;;10.77;7.70;;;;;;;20.92;100.00;101059.84;5012234;28;20084;-69
2023/10/02 02:01:51;;;;;;;8.93;7.47;;;;;;;21.10;100.00;101069.22;5012358;28;20022;-70
2023/10/02 02:04:17;;;;;;;10.02;7.57;;;;;;;21.06;100.00;101054.78;4994679;28;20033;-69
2023/10/02 02:06:54;;;;;;;10.32;7.57;;;;;;;21.12;100.00;101070.81;4994264;28;20393;-70
2023/10/02 02:09:24;;;;;;;9.07;7.50;;;;;;;20.81;100.00;101034.56;5010915;28;20042;-70
2023/10/02 02:12:08;;;;;;;11.68;7.20;;;;;;;20.70;100.00;101021.34;5012154;28;20045;-70
2023/10/02 02:14:40;;;;;;;10.07;7.40;;;;;;;20.60;100.00;101008.09;5010731;28;20405;-71
2023/10/02 02:17:10;;;;;;;10.90;7.40;;;;;;;20.49;100.00;100999.22;5012015;28;20037;-69
2023/10/02 02:19:37;;;;;;;13.57;7.72;;;;;;;21.09;100.00;101049.47;5011876;28;20034;-69
2023/10/02 02:22:03;;;;;;;11.30;7.18;;;;;;;20.50;100.00;100988.00;5012044;28;20053;-69
2023/10/02 02:24:34;;;;;;;10.85;7.93;;;;;;;20.50;100.00;100995.75;4994172;28;20041;-70
2023/10/02 02:27:04;;;;;;;10.90;7.68;;;;;;;21.01;100.00;101056.75;5011843;28;20029;-70
2023/10/02 02:29:30;;;;;;;8.48;6.93;;;;;;;20.76;100.00;101026.19;5011723;28;20118;-70
2023/10/02 02:31:56;;;;;;;10.73;7.18;;;;;;;20.89;100.00;101081.53;5010098;28;20072;-70
2023/10/02 02:34:23;;;;;;;10.65;7.32;;;;;;;20.97;100.00;101075.94;5011809;28;20065;-69
2023/10/02 02:36:49;;;;;;;9.75;7.05;;;;;;;20.89;100.00;101045.31;5011296;28;20096;-70
2023/10/02 02:39:17;;;;;;;10.25;7.47;;;;;;;20.96;100.00;101066.50;5011251;28;20057;-70
2023/10/02 02:41:43;;;;;;;9.95;6.68;;;;;;;20.86;100.00;101067.94;5011726;28;20029;-69
2023/10/02 02:44:29;;;;;;;10.40;6.88;;;;;;;20.87;100.00;101067.00;5011432;28;20037;-69
2023/10/02 02:46:55;;;;;;;10.55;7.45;;;;;;;20.30;100.00;100999.34;5011194;28;20472;-69
2023/10/02 02:49:25;;;;;;;13.05;7.07;;;;;;;20.08;100.00;100975.50;4993957;28;20060;-70
2023/10/02 02:51:55;;;;;;;11.43;6.93;;;;;;;20.76;100.00;101059.00;5011466;28;20408;-70
2023/10/02 02:54:25;;;;;;;10.68;7.30;;;;;;;20.51;100.00;101067.16;5011151;28;20026;-69
2023/10/02 02:56:57;;;;;;;10.07;7.05;;;;;;;20.52;100.00;101041.25;5011224;28;20535;-72
2023/10/02 02:59:27;;;;;;;9.60;6.68;;;;;;;20.63;100.00;101079.47;4993906;28;20030;-71
2023/10/02 03:02:08;;;;;;;13.05;6.70;;;;;;;20.50;100.00;101071.50;5010456;28;20025;-71
2023/10/02 03:04:38;;;;;;;8.02;6.90;;;;;;;20.68;100.00;101073.13;5011428;28;20141;-69
2023/10/02 03:07:18;;;;;;;11.18;6.85;;;;;;;20.36;100.00;101037.78;5011011;28;20026;-69
2023/10/02 03:09:44;;;;;;;11.57;6.43;;;;;;;20.34;100.00;101055.09;5011300;28;20412;-69
2023/10/02 03:12:10;;;;;;;10.45;6.95;;;;;;;19.72;100.00;100972.19;5011010;28;20036;-70
2023/10/02 03:14:35;;;;;;;12.05;6.85;;;;;;;20.65;100.00;101086.22;5011445;28;20504;-69
2023/10/02 03:17:28;;;;;;;9.93;7.00;;;;;;;20.41;100.00;101065.97;5011004;28;20054;-69
2023/10/02 03:19:47;;;;;;;9.88;6.97;;;;;;;20.41;100.00;101087.47;5010677;28;20025;-69
2023/10/02 03:22:12;;;;;;;10.25;6.30;;;;;;;20.30;100.00;101070.84;5011272;28;20119;-69
2023/10/02 03:24:41;;;;;;;11.88;7.13;;;;;;;20.39;100.00;101073.81;5010875;28;20056;-69
2023/10/02 03:27:09;;;;;;;11.05;6.53;;;;;;;20.07;100.00;101016.88;5011111;28;20053;-70
2023/10/02 03:29:36;;;;;;;10.65;6.50;;;;;;;20.22;100.00;101036.81;4993314;28;20048;-69
2023/10/02 03:32:02;;;;;;;11.27;6.80;;;;;;;20.27;100.00;101097.66;5010917;28;20029;-71
2023/10/02 03:34:27;;;;;;;8.50;6.38;;;;;;;20.06;100.00;101028.13;5010471;28;20492;-68
2023/10/02 03:40:25;;;;;;;10.85;6.22;;;;;;;20.43;100.00;101093.41;5010809;28;20103;-68
2023/10/02 03:42:39;;;;;;;8.80;6.15;;;;;;;20.03;100.00;101039.44;5007534;28;20050;-68
2023/10/02 03:45:05;;;;;;;11.82;6.57;;;;;;;20.18;100.00;101087.78;5007772;28;20103;-70
2023/10/02 03:47:33;;;;;;;8.93;6.75;;;;;;;19.95;100.00;101061.41;4990383;28;20030;-70
2023/10/02 03:50:03;;;;;;;9.23;6.70;;;;;;;20.06;100.00;101105.63;4991143;28;20488;-71
2023/10/02 03:52:31;;;;;;;9.32;6.88;;;;;;;19.90;100.00;101051.31;4973447;28;20038;-70
2023/10/02 03:55:20;;;;;;;8.45;6.22;;;;;;;19.86;100.00;101036.88;4990528;28;20038;-70
2023/10/02 03:57:50;;;;;;;9.07;6.68;;;;;;;19.96;100.00;101058.75;4990369;28;20042;-70
2023/10/02 04:00:27;;;;;;;10.63;6.45;;;;;;;20.20;100.00;101113.56;4991072;28;20026;-71
2023/10/02 04:02:54;;;;;;;8.52;6.03;;;;;;;19.61;100.00;101008.84;4990905;28;20034;-68
2023/10/02 04:05:32;;;;;;;10.55;6.57;;;;;;;20.28;100.00;101120.00;4990360;28;20045;-71
2023/10/02 04:08:12;;;;;;;12.85;6.57;;;;;;;20.24;100.00;101108.16;4990262;28;20049;-68
2023/10/02 04:10:51;;;;;;;11.68;6.60;;;;;;;20.48;100.00;101125.00;4990194;28;20062;-67
2023/10/02 04:13:27;;;;;;;15.20;6.43;;;;;;;20.59;100.00;101102.06;4990443;28;20416;-69
2023/10/02 04:16:28;;;;;;;9.25;5.93;;;;;;;20.23;100.00;101079.81;4993941;28;20507;-70
2023/10/02 04:18:58;;;;;;;9.00;5.95;;;;;;;19.92;100.00;101074.47;4989822;28;20046;-67
2023/10/02 04:21:25;;;;;;;12.48;6.47;;;;;;;20.08;100.00;101083.13;4994082;28;20595;-68
2023/10/02 04:23:53;;;;;;;8.95;6.00;;;;;;;20.34;100.00;101106.78;4994163;28;20030;-69
2023/10/02 04:26:28;;;;;;;9.60;6.47;;;;;;;20.05;100.00;101089.28;4976653;28;20121;-69
2023/10/02 04:28:58;;;;;;;11.35;6.65;;;;;;;20.40;100.00;101128.91;4993881;28;20034;-68
2023/10/02 04:31:28;;;;;;;8.75;6.05;;;;;;;20.34;100.00;101134.38;4993946;28;20031;-69
2023/10/02 04:34:15;;;;;;;13.15;6.18;;;;;;;20.40;100.00;101126.31;4993902;28;20463;-70
2023/10/02 04:36:43;;;;;;;8.50;6.32;;;;;;;20.22;100.00;101128.06;4993462;28;20117;-70
2023/10/02 04:39:52;;;;;;;12.50;6.45;;;;;;;20.06;100.00;101075.47;4993627;28;20101;-68
2023/10/02 04:42:57;;;;;;;11.00;6.70;;;;;;;20.48;100.00;101080.25;4993775;28;20424;-69
2023/10/02 04:44:49;;;;;;;10.75;6.07;;;;;;;20.61;100.00;101156.25;4988231;28;20046;-69
2023/10/02 04:47:19;;;;;;;13.30;6.63;;;;;;;20.08;100.00;101117.53;4993829;28;20093;-71
2023/10/02 04:53:19;;;;;;;11.80;5.80;;;;;;;20.07;100.00;101097.78;4994048;28;20042;-70
2023/10/02 04:55:44;;;;;;;28.50;6.68;;;;;;;20.12;100.00;101092.41;4993475;28;20049;-70
2023/10/02 04:58:14;;;;;;;10.43;5.95;;;;;;;20.31;100.00;101075.94;4994048;28;20034;-70
2023/10/02 05:03:26;;;;;;;10.98;6.15;;;;;;;20.18;100.00;101111.03;4993585;28;20465;-69
2023/10/02 05:05:58;;;;;;;12.05;5.95;;;;;;;20.49;100.00;101168.03;4993922;28;20034;-70
2023/10/02 05:08:37;;;;;;;10.55;5.97;;;;;;;20.43;100.00;101116.66;4993376;28;20031;-69
2023/10/02 05:11:07;;;;;;;12.85;5.75;;;;;;;20.19;100.00;101125.63;5000155;28;20054;-70
2023/10/02 05:13:53;;;;;;;17.08;6.78;;;;;;;20.59;100.00;101173.56;5013278;28;20030;-71
2023/10/02 05:16:29;;;;;;;10.57;5.20;;;;;;;20.59;100.00;101176.16;4997076;28;20033;-71
2023/10/02 05:18:56;;;;;;;9.18;5.72;;;;;;;20.55;100.00;101167.72;4975794;28;20034;-70
2023/10/02 05:21:35;;;;;;;10.20;5.90;;;;;;;20.13;100.00;101107.81;4993548;28;20138;-69
2023/10/02 05:24:11;;;;;;;11.43;6.32;;;;;;;20.55;100.00;101180.66;4991409;28;20034;-71
2023/10/02 05:26:41;;;;;;;12.88;5.50;;;;;;;20.73;100.00;101190.06;4993507;28;20512;-69
2023/10/02 05:29:09;;;;;;;13.80;5.80;;;;;;;20.71;100.00;101172.97;4993094;28;20030;-71
2023/10/02 05:31:36;;;;;;;7.90;5.47;;;;;;;20.29;100.00;101139.75;4975718;28;20049;-69
2023/10/02 05:34:21;;;;;;;10.88;6.15;;;;;;;20.95;100.00;101204.50;4993211;28;20504;-69
2023/10/02 05:37:11;;;;;;;10.93;5.38;;;;;;;20.60;100.00;101190.78;4993177;28;20038;-69
2023/10/02 05:39:39;;;;;;;10.10;5.38;;;;;;;20.74;100.00;101214.16;4992783;28;20034;-68
2023/10/02 05:42:13;;;;;;;10.38;5.40;;;;;;;20.75;100.00;101171.91;4975354;28;20030;-69
2023/10/02 05:44:39;;;;;;;10.23;5.28;;;;;;;21.08;100.00;101202.97;4992993;28;20071;-69
2023/10/02 05:47:05;;;;;;;10.63;6.18;;;;;;;21.30;100.00;101216.47;4992399;28;20046;-71
2023/10/02 05:49:36;;;;;;;9.40;5.85;;;;;;;21.01;100.00;101214.53;4992846;28;20425;-70
2023/10/02 05:52:02;;;;;;;9.05;5.60;;;;;;;20.73;100.00;101166.81;4992408;28;20030;-68
2023/10/02 05:54:35;;;;;;;10.00;5.68;;;;;;;21.35;100.00;101227.44;4975120;28;20042;-69
2023/10/02 05:57:12;;;;;;;10.43;5.85;;;;;;;21.54;100.00;101217.78;4992742;28;20026;-69
2023/10/02 05:59:45;;;;;;;16.75;5.93;;;;;;;21.88;100.00;101155.50;4992759;28;20030;-69
2023/10/02 06:02:11;;;;;;;13.45;6.03;;;;;;;22.47;100.00;101218.66;4992811;28;20034;-69
2023/10/02 06:04:37;;;;;;;11.18;5.88;;;;;;;22.27;100.00;101167.94;4992317;28;20092;-69
2023/10/02 06:07:03;;;;;;;10.30;5.90;;;;;;;22.14;100.00;101173.00;4992476;28;20112;-69
2023/10/02 06:09:43;;;;;;;9.23;5.88;;;;;;;23.05;100.00;101217.81;4975072;28;20124;-70
2023/10/02 06:12:13;;;;;;;14.77;5.95;;;;;;;22.67;100.00;101226.16;4992516;28;20030;-69
2023/10/02 06:14:42;;;;;;;10.55;5.50;;;;;;;21.75;100.00;101184.72;4990887;28;20035;-69
2023/10/02 06:17:16;;;;;;;10.15;5.50;;;;;;;22.14;100.00;101191.16;4992343;28;20052;-69
2023/10/02 06:19:42;;;;;;;11.18;5.57;;;;;;;21.70;100.00;101192.72;4992475;28;20034;-68
2023/10/02 06:22:09;;;;;;;9.50;5.50;;;;;;;21.92;100.00;101264.94;4992304;28;20046;-70
2023/10/02 06:24:35;;;;;;;10.60;5.30;;;;;;;21.36;100.00;101169.56;4992138;28;20185;-69
2023/10/02 06:27:07;;;;;;;10.48;5.63;;;;;;;21.52;100.00;101269.63;4991614;28;20121;-69
2023/10/02 06:29:37;;;;;;;13.23;5.57;;;;;;;21.58;100.00;101263.28;4991975;28;20087;-69
2023/10/02 06:32:09;;;;;;;8.20;5.40;;;;;;;21.57;100.00;101284.91;4991978;28;20030;-69
2023/10/02 06:34:39;;;;;;;14.23;5.30;;;;;;;21.74;100.00;101263.31;4990616;28;20030;-69
2023/10/02 06:37:07;;;;;;;9.18;4.82;;;;;;;21.40;100.00;101285.78;4991246;28;20117;-69
2023/10/02 06:39:35;;;;;;;10.27;5.88;;;;;;;21.96;100.00;101275.06;4991891;28;20043;-69
2023/10/02 06:42:04;;;;;;;13.60;5.70;;;;;;;21.45;100.00;101231.22;4991889;28;20031;-69
2023/10/02 06:47:31;;;;;;;11.90;5.05;;;;;;;21.48;100.00;101299.19;4974787;28;20053;-69
2023/10/02 06:50:21;;;;;;;11.43;5.45;;;;;;;21.34;100.00;101300.78;4974223;28;20065;-70
2023/10/02 06:52:49;;;;;;;8.23;5.25;;;;;;;21.47;100.00;101307.84;4974002;28;20113;-69
2023/10/02 06:55:17;;;;;;;8.93;5.28;;;;;;;21.36;100.00;101314.50;4991595;28;20092;-71
2023/10/02 06:57:49;;;;;;;8.60;5.57;;;;;;;21.48;100.00;101294.00;4990354;28;20038;-72
2023/10/02 07:00:19;;;;;;;7.63;5.20;;;;;;;21.02;100.00;101265.38;4991583;28;20034;-69
2023/10/02 07:02:56;;;;;;;10.38;5.05;;;;;;;21.26;100.00;101248.59;4991368;28;20134;-69
2023/10/02 07:05:35;;;;;;;12.90;5.32;;;;;;;21.66;100.00;101288.78;4992035;28;20038;-69
2023/10/02 07:08:17;;;;;;;11.57;6.00;;;;;;;21.04;100.00;101276.47;4991884;28;20030;-69
2023/10/02 07:10:47;;;;;;;9.68;5.07;;;;;;;21.12;100.00;101258.81;4991424;28;20030;-69
2023/10/02 07:13:20;;;;;;;9.13;5.80;;;;;;;21.23;100.00;101264.28;4991367;28;20030;-70
2023/10/02 07:15:57;;;;;;;10.73;6.32;;;;;;;21.06;100.00;101267.72;4991214;28;20116;-70
2023/10/02 07:18:38;;;;;;;10.13;5.93;;;;;;;21.56;100.00;101259.94;4991482;28;20030;-70
2023/10/02 07:21:07;;;;;;;;;;;;;;;21.65;100.00;101329.34;4974408;28;20493;-68
2023/10/02 07:23:37;;;;;;;13.52;5.38;;;;;;;21.40;100.00;101328.94;4991170;28;20355;-71
2023/10/02 07:26:04;;;;;;;10.32;6.40;;;;;;;20.89;100.00;101220.31;4991150;28;20033;-69
2023/10/02 07:28:31;;;;;;;11.90;5.93;;;;;;;21.58;100.00;101323.69;4991444;28;20502;-70
2023/10/02 07:30:57;;;;;;;9.05;5.88;;;;;;;21.15;100.00;101271.59;4991213;28;20033;-69
2023/10/02 07:33:22;;;;;;;11.27;5.93;;;;;;;21.16;100.00;101284.47;4991228;28;20026;-69
2023/10/02 07:35:54;;;;;;;15.75;6.40;;;;;;;21.04;100.00;101272.13;4991269;28;20026;-69
2023/10/02 07:38:30;;;;;;;;;;;;;;;21.65;100.00;101334.53;4991497;28;20030;-69
2023/10/02 07:41:06;;;;;;;10.30;6.05;;;;;;;21.38;100.00;101250.56;4990969;28;19910;-69
2023/10/02 07:43:32;;;;;;;12.45;5.60;;;;;;;22.02;100.00;101325.69;4961497;28;20429;-70
2023/10/02 07:46:02;;;;;;;11.48;6.10;;;;;;;21.66;100.00;101265.47;4966277;28;20031;-70
2023/10/02 07:48:33;;;;;;;18.25;6.07;;;;;;;22.82;100.00;101235.66;4974214;28;20035;-70
2023/10/02 07:51:00;;;;;;;11.52;6.25;;;;;;;22.90;100.00;101233.41;4975400;28;20037;-70
2023/10/02 07:53:38;;;;;;;13.82;5.28;;;;;;;22.93;100.00;101256.59;4975648;28;20178;-70
2023/10/02 07:56:06;;;;;;;24.77;5.55;;;;;;;23.01;100.00;101316.66;4975427;28;20042;-70
2023/10/02 07:58:33;;;;;;;9.65;5.50;;;;;;;22.64;100.00;101315.31;4975598;28;20075;-70
2023/10/02 08:01:11;;;;;;;11.07;5.10;;;;;;;22.15;100.00;101265.34;4975260;28;20548;-70
2023/10/02 08:03:49;;;;;;;9.98;5.20;;;;;;;22.36;100.00;101300.44;4974919;28;20042;-70
2023/10/02 08:06:21;;;;;;;9.57;5.60;;;;;;;22.43;100.00;101313.91;4975494;28;20722;-70
2023/10/02 08:11:47;;;;;;;8.68;5.60;;;;;;;22.29;100.00;101311.25;4975430;28;20537;-70
2023/10/02 08:14:34;;;;;;;11.32;5.30;;;;;;;23.35;100.00;101248.91;4975671;28;20033;-69
2023/10/02 08:17:00;;;;;;;12.68;5.50;;;;;;;23.76;100.00;101236.81;4973830;28;20039;-68
2023/10/02 08:19:26;;;;;;;12.85;5.72;;;;;;;24.09;100.00;101211.31;4975088;28;20170;-69
2023/10/02 08:21:53;;;;;;;11.80;5.53;;;;;;;24.69;100.00;101247.25;4975311;28;20437;-70
2023/10/02 08:24:19;;;;;;;11.77;5.93;;;;;;;24.67;100.00;101252.56;4974759;28;20130;-69
2023/10/02 08:26:45;;;;;;;10.68;5.20;;;;;;;24.81;100.00;101246.47;4974818;28;20511;-69
2023/10/02 08:29:13;;;;;;;9.85;5.53;;;;;;;24.22;100.00;101247.75;4974814;28;20038;-69
2023/10/02 08:31:43;;;;;;;9.75;5.18;;;;;;;23.99;100.00;101230.97;4975917;28;20035;-68
2023/10/02 08:34:19;;;;;;;10.27;5.50;;;;;;;23.66;100.00;101217.53;4978869;28;20051;-69
2023/10/02 08:36:49;;;;;;;11.38;5.68;;;;;;;23.32;100.00;101308.78;4980734;28;20035;-68
2023/10/02 08:39:21;;;;;;;12.90;5.90;;;;;;;22.99;100.00;101256.25;4977468;28;20037;-69
2023/10/02 08:41:50;;;;;;;12.25;5.53;;;;;;;22.40;100.00;101277.81;4973519;28;20035;-69
2023/10/02 08:44:16;;;;;;;9.77;5.50;;;;;;;22.99;100.00;101318.50;4974651;28;20490;-69
2023/10/02 08:46:45;;;;;;;13.45;5.82;;;;;;;23.11;100.00;101310.03;4974686;28;20037;-68
2023/10/02 08:49:13;;;;;;;13.23;5.82;;;;;;;22.94;100.00;101325.72;4974406;28;20458;-68
2023/10/02 08:51:48;;;;;;;9.15;5.60;;;;;;;22.32;100.00;101314.50;4974488;28;20038;-69
2023/10/02 08:54:15;;;;;;;12.98;5.63;;;;;;;22.36;100.00;101281.50;4974600;28;20031;-69
2023/10/02 08:56:44;;;;;;;12.88;5.63;;;;;;;22.45;100.00;101262.81;4974533;28;20035;-68
2023/10/02 08:59:28;;;;;;;11.35;6.07;;;;;;;22.36;100.00;101246.00;4973645;28;20034;-69
2023/10/02 09:02:05;;;;;;;12.35;5.90;;;;;;;22.75;100.00;101340.66;4974184;28;20058;-69
2023/10/02 09:04:32;;;;;;;9.63;5.30;;;;;;;22.31;100.00;101286.06;4974107;28;20035;-70
2023/10/02 09:06:58;;;;;;;10.32;7.00;;;;;;;22.20;100.00;101299.66;4974319;28;20177;-69
2023/10/02 09:09:36;;;;;;;17.77;6.57;;;;;;;22.72;100.00;101338.25;4972976;28;20113;-70
2023/10/02 09:12:03;;;;;;;12.20;6.15;;;;;;;22.35;100.00;101323.88;4972908;28;20030;-70
2023/10/02 09:17:07;;;;;;;9.25;6.25;;;;;;;22.66;100.00;101325.63;4974073;28;20038;-70
2023/10/02 09:19:37;;;;;;;13.48;6.13;;;;;;;22.60;100.00;101331.97;4972741;28;20493;-69
2023/10/02 09:22:07;;;;;;;12.65;6.25;;;;;;;22.47;100.00;101335.31;4973790;28;20055;-70
2023/10/02 09:24:55;;;;;;;14.25;6.40;;;;;;;21.96;100.00;101250.91;4974086;28;20549;-69
2023/10/02 09:27:31;;;;;;;8.55;5.70;;;;;;;22.58;100.00;101359.75;4973919;28;20027;-70
2023/10/02 09:30:19;;;;;;;19.63;6.30;;;;;;;22.44;100.00;101331.97;4972614;28;20039;-71
2023/10/02 09:32:49;;;;;;;9.98;5.25;;;;;;;21.63;100.00;101263.88;4973597;28;20121;-69
2023/10/02 09:35:29;;;;;;;10.88;5.55;;;;;;;22.00;100.00;101258.44;4973704;28;20031;-69
2023/10/02 09:37:57;;;;;;;11.10;5.65;;;;;;;22.38;100.00;101367.78;4973930;28;20109;-68
2023/10/02 09:40:28;;;;;;;14.50;5.95;;;;;;;22.33;100.00;101372.38;4973460;28;20078;-69
2023/10/02 09:43:10;;;;;;;10.75;5.55;;;;;;;22.00;100.00;101302.47;4973339;28;20030;-69
2023/10/02 09:45:39;;;;;;;11.45;5.53;;;;;;;22.03;100.00;101312.66;4973410;28;20505;-70
2023/10/02 09:48:06;;;;;;;13.30;5.90;;;;;;;22.51;100.00;101371.38;4973552;28;20031;-70
2023/10/02 09:50:41;;;;;;;11.23;5.45;;;;;;;22.01;100.00;101379.25;4973667;28;20033;-70
2023/10/02 09:53:09;;;;;;;10.45;5.47;;;;;;;21.91;100.00;101378.06;4972085;28;20122;-70
2023/10/02 09:55:56;;;;;;;11.25;5.80;;;;;;;21.82;100.00;101395.84;4973325;28;20030;-70
2023/10/02 09:58:34;;;;;;;9.95;6.00;;;;;;;21.26;100.00;101283.06;4971680;28;20077;-70
2023/10/02 10:03:55;;;;;;;10.52;5.88;;;;;;;21.76;100.00;101389.22;4973161;28;20038;-69
2023/10/02 10:06:28;;;;;;;11.43;5.93;;;;;;;21.29;100.00;101367.47;4972935;28;20030;-68
2023/10/02 10:11:42;;;;;;;9.70;5.70;;;;;;;21.31;100.00;101417.41;4972934;28;20085;-70
2023/10/02 10:14:42;;;;;;;12.10;5.68;;;;;;;21.48;100.00;101405.31;4972912;28;20038;-70
2023/10/02 10:17:16;;;;;;;11.48;6.00;;;;;;;21.63;100.00;101395.91;4973115;28;20391;-68
2023/10/02 10:20:07;;;;;;;12.43;6.20;;;;;;;21.75;100.00;101394.47;4971812;28;20034;-70
2023/10/02 10:22:38;;;;;;;10.23;6.13;;;;;;;21.50;100.00;101320.66;4972839;28;20089;-68
2023/10/02 10:25:32;;;;;;;11.00;6.22;;;;;;;22.02;100.00;101374.94;4971462;28;20389;-68
2023/10/02 10:27:59;;;;;;;12.32;5.68;;;;;;;22.37;100.00;101361.75;4972708;28;20034;-68
2023/10/02 10:30:24;;;;;;;12.88;6.40;;;;;;;22.47;100.00;101361.25;4972621;28;20023;-69
2023/10/02 10:35:48;;;;;;;10.00;5.60;;;;;;;22.10;100.00;101358.06;4972811;28;20073;-68
2023/10/02 10:38:25;;;;;;;13.38;5.68;;;;;;;22.11;100.00;101354.53;4971472;28;20022;-68
2023/10/02 10:41:05;;;;;;;11.18;6.25;;;;;;;22.65;100.00;101347.28;4972727;28;20077;-69
2023/10/02 10:43:52;;;;;;;11.60;5.82;;;;;;;22.04;100.00;101316.09;4972614;28;20485;-68
2023/10/02 10:46:17;;;;;;;12.27;5.95;;;;;;;22.20;100.00;101348.03;4972571;28;20034;-68
2023/10/02 10:48:48;;;;;;;11.90;5.38;;;;;;;22.06;100.00;101355.72;4972308;28;20505;-69
2023/10/02 10:51:20;;;;;;;11.93;5.68;;;;;;;21.93;100.00;101288.16;4971169;28;20027;-69
2023/10/02 10:53:52;;;;;;;11.18;6.13;;;;;;;22.23;100.00;101347.84;4972383;28;20038;-69
2023/10/02 10:56:19;;;;;;;10.88;5.60;;;;;;;22.23;100.00;101340.94;4972241;28;20129;-69
2023/10/02 10:58:45;;;;;;;10.85;5.63;;;;;;;21.82;100.00;101274.97;4972243;28;20045;-69
2023/10/02 11:01:21;;;;;;;8.15;5.30;;;;;;;22.64;100.00;101314.50;4972335;28;20508;-71
2023/10/02 11:03:54;;;;;;;9.35;5.40;;;;;;;22.59;100.00;101319.94;4970995;28;20039;-68
2023/10/02 11:06:23;;;;;;;9.68;5.32;;;;;;;22.53;100.00;101306.44;4972249;28;20035;-69
2023/10/02 11:09:11;;;;;;;9.57;5.82;;;;;;;22.97;100.00;101310.81;4972224;28;20038;-69
2023/10/02 11:11:50;;;;;;;10.93;5.75;;;;;;;22.57;100.00;101269.06;4971343;28;20034;-69
2023/10/02 11:14:36;;;;;;;9.50;5.53;;;;;;;22.95;100.00;101306.66;4972147;28;20037;-69
2023/10/02 11:17:04;;;;;;;12.02;6.00;;;;;;;22.82;100.00;101306.50;4971608;28;20038;-69
2023/10/02 11:22:14;;;;;;;10.95;5.70;;;;;;;22.80;100.00;101255.66;4971255;28;20055;-69
2023/10/02 11:24:55;;;;;;;11.32;5.72;;;;;;;22.83;100.00;101299.56;4971907;28;20038;-69
2023/10/02 11:27:22;;;;;;;11.02;5.80;;;;;;;22.68;100.00;101246.81;4971922;28;20106;-69
2023/10/02 11:30:02;;;;;;;8.63;6.13;;;;;;;22.84;100.00;101252.78;4954328;28;20046;-68
2023/10/02 11:33:23;;;;;;;9.93;5.75;;;;;;;23.32;100.00;101298.41;4971997;28;20026;-70
2023/10/02 11:35:44;;;;;;;8.48;5.07;;;;;;;23.58;100.00;101255.28;4969663;28;20437;-69
2023/10/02 11:38:09;;;;;;;10.32;5.63;;;;;;;23.65;100.00;101267.78;4970402;28;20023;-70
2023/10/02 11:40:35;;;;;;;14.68;6.03;;;;;;;23.49;100.00;101279.22;4971662;28;20038;-69
2023/10/02 11:43:01;;;;;;;12.00;5.72;;;;;;;24.02;100.00;101236.03;4971849;28;20081;-69
2023/10/02 11:45:28;;;;;;;10.52;5.80;;;;;;;23.51;100.00;101194.25;4971942;28;21343;-69
2023/10/02 11:47:53;;;;;;;9.27;5.55;;;;;;;23.60;100.00;101215.31;4970570;28;20480;-69
2023/10/02 11:50:19;;;;;;;9.68;6.03;;;;;;;22.75;100.00;101226.53;4971575;28;20122;-73
2023/10/02 11:52:44;;;;;;;10.95;5.35;;;;;;;23.19;100.00;101274.06;4971038;28;20046;-69
2023/10/02 11:55:10;;;;;;;13.73;6.10;;;;;;;23.13;100.00;101244.13;4971456;28;20482;-69
2023/10/02 11:57:37;;;;;;;9.90;5.68;;;;;;;23.47;100.00;101203.19;4976772;28;20055;-73
2023/10/02 12:00:08;;;;;;;8.57;5.95;;;;;;;23.58;100.00;101274.28;4981024;28;20030;-69
2023/10/02 12:02:34;;;;;;;9.27;5.85;;;;;;;23.71;100.00;101212.03;4970731;28;20073;-69
2023/10/02 12:05:00;;;;;;;9.98;5.53;;;;;;;23.96;100.00;101213.00;4971538;28;20072;-70
2023/10/02 12:07:25;;;;;;;13.05;6.10;;;;;;;23.51;100.00;101283.38;4971815;28;20460;-69
2023/10/02 12:09:53;;;;;;;10.98;5.45;;;;;;;23.01;100.00;101290.72;4971825;28;20603;-69